Glenwood Springs, CO (81601)

3:59 AM MDT on August 31, 2015 (GMT -0600)
South Glenwood Springs | | Change Station
CLOSE
Current Station
Personal Weather Station
Location: Glenwood Springs, CO
Elevation: 5910 ft
Nearby Weather Stations

Elev 5910 ft 39.51 °N, 107.31 °W | Updated 4 minutes ago

Overcast
Overcast
57.5 °F
Feels Like 57.5 °F
N
0.0
Wind Variable Wind from North
Gusts 0.0 mph

Today
High -- | Low -- °F
--% Chance of Precip.
Yesterday
High -- | Low -- °F
Precip. -- in
6:36 AM 7:42 PM
Waning Gibbous, 96% visible
Pressure 29.98 in
Visibility 10.0 miles
Clouds Few 9500 ft
Scattered Clouds 12000 ft
Dew Point 55 °F
Humidity 90%
Rainfall Not available.
Snow Depth Not available.
UV 0.0 out of 12
Pollen 9.90 out of 12
Air Quality Not available.
Flu Activity Not available.
METAR KRIL 310853Z AUTO 32003KT 10SM FEW095 SCT120 15/13 A3020 RMK AO2 RAE02 SLP152 P0000 60023 T01500133 58016
Pressure 29.98 in
Visibility 10.0 miles
Clouds Few 9500 ft
Scattered Clouds 12000 ft
Dew Point 55 °F
Humidity 90%
Rainfall Not available.
Snow Depth Not available.
UV 0.0 out of 12
Pollen 9.90 out of 12
Air Quality Not available.
Flu Activity Not available.
METAR KRIL 310853Z AUTO 32003KT 10SM FEW095 SCT120 15/13 A3020 RMK AO2 RAE02 SLP152 P0000 60023 T01500133 58016

10-Day Weather Forecast

×

Almanac

Astronomy

Aug. 31, 2015 Rise Set
Actual Time
Civil Twilight
Nautical Twilight
Astronomical Twilight
Moon
Length of Visible Light
Length of Day
Tomorrow will be .
, % of the Moon is Illuminated

Today's Extremes

State Highs State Lows

Community

WunderPhotos

Upload Photos

1,851,229 photos uploaded!

WunderBlogs® & News

Nearby

Air Quality

  Air Quality AQ Index Pollutant
Not available.

Snow Depth

Station Depth Elevation

Earthquake Activity

City Distance Mag. Time & Date
Minimum magnitude displayed is 2.5.

Coastal Water Temperatures

Place Temperature

Stations

Nearby Weather Stations

Station Location Temp. Windchill Dew Point Humidity Wind Precip. Elev Updated Type